Time;durP1;ratioP1;P1;durP2;ratioP2;P2;SDS_P1;SDS_P2;PMS_P1;PMS_P2;Temp;Humidity;BMP_temperature;BMP_pressure;BME280_temperature;BME280_humidity;BME280_pressure;Samples;Min_cycle;Max_cycle;Signal;HPM_P1;HPM_P2
2023/10/15 00:00:26;;;;;;;3.07;2.07;;;;;;;22.73;66.52;97625.97;4979982;28;20223;-30
2023/10/15 00:02:53;;;;;;;2.00;1.80;;;;;;;22.73;66.46;97623.41;4984057;28;20663;-26
2023/10/15 00:05:25;;;;;;;2.77;2.20;;;;;;;22.71;66.45;97621.66;4981182;28;20203;-26
2023/10/15 00:07:52;;;;;;;2.00;1.60;;;;;;;22.73;66.34;97627.66;4982354;28;20226;-26
2023/10/15 00:10:24;;;;;;;3.80;1.80;;;;;;;22.74;66.42;97624.28;4981921;28;20589;-26
2023/10/15 00:12:52;;;;;;;2.27;1.87;;;;;;;22.73;66.30;97620.84;4981892;28;20206;-26
2023/10/15 00:15:20;;;;;;;2.43;2.00;;;;;;;22.73;66.35;97620.84;4984689;28;20235;-27
2023/10/15 00:17:47;;;;;;;3.53;2.00;;;;;;;22.74;66.42;97621.72;4985405;28;20226;-26
2023/10/15 00:20:17;;;;;;;2.20;1.87;;;;;;;22.74;66.63;97626.84;4963926;28;20282;-26
2023/10/15 00:22:44;;;;;;;3.00;2.37;;;;;;;22.74;66.45;97630.25;4985532;28;20215;-26
2023/10/15 00:25:14;;;;;;;2.47;1.80;;;;;;;22.73;66.53;97633.66;4979234;28;20207;-26
2023/10/15 00:27:41;;;;;;;2.90;1.87;;;;;;;22.72;66.76;97625.94;4974013;28;20570;-27
2023/10/15 00:30:19;;;;;;;3.37;2.10;;;;;;;22.73;66.85;97628.53;4986065;28;20216;-26
2023/10/15 00:32:46;;;;;;;2.27;1.80;;;;;;;22.72;66.56;97633.63;4978244;28;20203;-35
2023/10/15 00:35:13;;;;;;;2.83;1.90;;;;;;;22.72;66.55;97642.19;4982550;28;20266;-26
2023/10/15 00:37:40;;;;;;;4.23;2.10;;;;;;;22.71;66.30;97632.75;4983269;28;20227;-26
2023/10/15 00:40:16;;;;;;;2.83;2.00;;;;;;;22.73;66.53;97643.03;4980669;28;20214;-26
2023/10/15 00:42:45;;;;;;;1.93;1.67;;;;;;;22.72;66.50;97647.31;4980696;28;20207;-26
2023/10/15 00:45:15;;;;;;;2.20;1.70;;;;;;;22.73;66.50;97643.03;4989587;28;20849;-32
2023/10/15 00:47:42;;;;;;;2.30;2.10;;;;;;;22.71;66.49;97644.72;4983493;28;20634;-26
2023/10/15 00:50:09;;;;;;;2.50;1.97;;;;;;;22.73;66.44;97649.03;4961736;28;20294;-26
2023/10/15 00:52:42;;;;;;;2.40;2.00;;;;;;;22.74;66.51;97643.06;4998034;28;20269;-28
2023/10/15 00:55:19;;;;;;;2.20;1.90;;;;;;;22.73;66.53;97646.47;4986529;28;20211;-27
2023/10/15 00:57:46;;;;;;;3.63;2.23;;;;;;;22.74;66.47;97655.03;4992404;28;20277;-26
2023/10/15 01:03:03;;;;;;;2.63;1.80;;;;;;;22.72;66.52;97644.75;4989185;28;20207;-26
2023/10/15 01:05:34;;;;;;;2.50;1.83;;;;;;;22.72;66.64;97644.75;4980354;28;20239;-27
2023/10/15 01:08:03;;;;;;;2.60;1.70;;;;;;;22.72;66.65;97638.75;4983832;28;20235;-26
2023/10/15 01:10:36;;;;;;;2.30;2.00;;;;;;;22.73;66.99;97635.34;4987427;28;20239;-26
2023/10/15 01:13:21;;;;;;;3.33;1.97;;;;;;;22.71;66.67;97644.72;4981371;28;20579;-28
2023/10/15 01:15:53;;;;;;;2.50;2.10;;;;;;;22.72;66.39;97638.75;4982913;28;20619;-26
2023/10/15 01:18:20;;;;;;;2.10;1.83;;;;;;;22.71;66.56;97631.91;4979457;28;20275;-31
2023/10/15 01:20:46;;;;;;;1.90;1.70;;;;;;;22.72;66.48;97631.06;4999529;28;20223;-26
2023/10/15 01:23:28;;;;;;;2.47;2.00;;;;;;;22.73;66.66;97627.66;4978244;28;20239;-26
2023/10/15 01:26:13;;;;;;;2.00;1.70;;;;;;;22.72;66.53;97631.94;4981984;28;20207;-26
2023/10/15 01:28:42;;;;;;;2.13;1.80;;;;;;;22.73;66.50;97635.34;4980548;28;20211;-26
2023/10/15 01:31:14;;;;;;;2.57;1.97;;;;;;;22.72;66.53;97637.06;4999379;28;20229;-29
2023/10/15 01:33:49;;;;;;;2.10;1.67;;;;;;;22.73;66.51;97635.34;4988832;28;20204;-27
2023/10/15 01:36:21;;;;;;;2.47;1.90;;;;;;;22.71;66.55;97627.63;4987134;28;20219;-27
2023/10/15 01:38:55;;;;;;;3.07;2.13;;;;;;;22.72;66.54;97636.19;4988196;28;20540;-26
2023/10/15 01:41:25;;;;;;;3.73;1.60;;;;;;;22.72;66.61;97623.38;4982185;28;20218;-26
2023/10/15 01:43:53;;;;;;;1.90;1.70;;;;;;;22.71;66.71;97622.50;4990193;28;20218;-26
2023/10/15 01:46:39;;;;;;;1.67;1.57;;;;;;;22.71;66.65;97614.81;4985316;28;20196;-26
2023/10/15 01:49:09;;;;;;;1.80;1.70;;;;;;;22.71;67.08;97621.66;4986185;28;20227;-26
2023/10/15 01:51:39;;;;;;;2.23;1.77;;;;;;;22.71;66.58;97624.22;4988504;28;20227;-26
2023/10/15 01:54:09;;;;;;;2.50;1.60;;;;;;;22.71;66.61;97613.97;4988256;28;20273;-26
2023/10/15 01:56:45;;;;;;;2.07;1.77;;;;;;;22.72;66.54;97615.69;4970830;28;20258;-26
2023/10/15 01:59:11;;;;;;;1.87;1.67;;;;;;;22.70;66.58;97614.78;4979263;28;20215;-27
2023/10/15 02:01:41;;;;;;;2.87;1.90;;;;;;;22.71;66.50;97616.53;4988269;28;20226;-27
2023/10/15 02:04:26;;;;;;;3.43;2.03;;;;;;;22.72;66.28;97613.13;4987151;28;20274;-30
2023/10/15 02:06:53;;;;;;;2.10;1.60;;;;;;;22.72;66.51;97613.13;4982990;28;20581;-26
2023/10/15 02:09:22;;;;;;;3.03;1.70;;;;;;;22.72;66.61;97614.00;4990619;28;20199;-26
2023/10/15 02:11:54;;;;;;;1.73;1.60;;;;;;;22.73;66.52;97609.72;4987925;28;20230;-26
2023/10/15 02:14:27;;;;;;;2.27;1.70;;;;;;;22.71;66.90;97607.13;4978179;28;20606;-26
2023/10/15 02:16:54;;;;;;;2.63;1.97;;;;;;;22.73;66.74;97609.72;4981961;28;20254;-27
2023/10/15 02:19:40;;;;;;;2.37;1.87;;;;;;;22.72;66.46;97614.00;4986836;28;20221;-26
2023/10/15 02:22:14;;;;;;;2.30;1.90;;;;;;;22.72;66.49;97618.25;4980502;28;20315;-26
2023/10/15 02:24:47;;;;;;;1.70;1.60;;;;;;;22.73;66.50;97614.84;4988789;28;20199;-26
2023/10/15 02:27:24;;;;;;;3.40;1.63;;;;;;;22.73;66.43;97618.28;4984360;28;20199;-26
2023/10/15 02:29:53;;;;;;;2.77;1.80;;;;;;;22.72;66.49;97615.69;4982280;28;20231;-28
2023/10/15 02:34:51;;;;;;;2.23;1.83;;;;;;;22.73;66.60;97617.41;4988143;28;20211;-26
2023/10/15 02:37:27;;;;;;;1.97;1.80;;;;;;;22.71;66.65;97607.13;4981140;28;20214;-27
2023/10/15 02:39:56;;;;;;;3.27;1.80;;;;;;;22.68;66.59;97601.06;4980276;28;20641;-26
2023/10/15 02:42:30;;;;;;;2.90;1.93;;;;;;;22.64;66.63;97592.44;4983109;28;20215;-32
2023/10/15 02:44:58;;;;;;;2.83;1.90;;;;;;;22.71;66.75;97611.41;4990936;28;20203;-29
2023/10/15 02:47:31;;;;;;;2.60;1.77;;;;;;;22.71;66.67;97613.97;4996501;28;20198;-28
2023/10/15 02:50:03;;;;;;;2.20;1.80;;;;;;;22.70;66.56;97623.34;4982395;28;20299;-26
2023/10/15 02:52:35;;;;;;;2.27;1.57;;;;;;;22.70;66.76;97619.91;4982121;28;20213;-27
2023/10/15 02:55:10;;;;;;;1.97;1.73;;;;;;;22.70;66.71;97615.66;4986022;28;20659;-28
2023/10/15 02:57:43;;;;;;;3.37;1.93;;;;;;;22.68;66.79;97619.84;4981887;28;20231;-27
2023/10/15 03:00:18;;;;;;;1.80;1.70;;;;;;;22.67;66.90;97635.19;4986306;28;20204;-27
2023/10/15 03:02:45;;;;;;;2.73;1.90;;;;;;;22.68;66.83;97632.66;4993322;28;20210;-26
2023/10/15 03:05:15;;;;;;;2.30;2.00;;;;;;;22.68;66.74;97632.66;4988624;28;20211;-28
2023/10/15 03:07:42;;;;;;;2.13;1.67;;;;;;;22.69;66.77;97628.41;4990560;28;20240;-29
2023/10/15 03:10:10;;;;;;;2.00;1.63;;;;;;;22.67;66.79;97619.81;4987111;28;20203;-26
2023/10/15 03:12:43;;;;;;;1.60;1.50;;;;;;;22.69;66.79;97626.75;4986925;28;20238;-28
2023/10/15 03:15:16;;;;;;;2.10;1.70;;;;;;;22.69;66.77;97623.28;4975205;28;20203;-26
2023/10/15 03:17:43;;;;;;;3.13;1.93;;;;;;;22.70;66.77;97631.03;4979595;28;20648;-27
2023/10/15 03:20:24;;;;;;;1.90;1.70;;;;;;;22.71;66.73;97627.63;4984126;28;20289;-26
2023/10/15 03:22:58;;;;;;;2.63;1.67;;;;;;;22.72;66.70;97623.38;4978984;28;20286;-26
2023/10/15 03:25:26;;;;;;;2.07;1.87;;;;;;;22.71;66.69;97619.94;4992368;28;20211;-27
2023/10/15 03:27:54;;;;;;;1.60;1.50;;;;;;;22.73;66.69;97622.53;4977983;28;20227;-28
2023/10/15 03:30:24;;;;;;;2.10;1.57;;;;;;;22.71;66.62;97614.81;4982170;28;20218;-26
2023/10/15 03:32:52;;;;;;;1.57;1.43;;;;;;;22.72;66.63;97624.25;4980480;28;20203;-26
2023/10/15 03:35:38;;;;;;;3.57;1.90;;;;;;;22.73;66.87;97622.53;4987504;28;20207;-29
2023/10/15 03:38:13;;;;;;;1.70;1.60;;;;;;;22.74;66.53;97616.59;4988722;28;20223;-28
2023/10/15 03:40:47;;;;;;;1.70;1.57;;;;;;;22.74;66.64;97614.03;4988580;28;20245;-26
2023/10/15 03:43:20;;;;;;;1.80;1.40;;;;;;;22.74;66.62;97606.34;4989265;28;20243;-26
2023/10/15 03:45:53;;;;;;;2.27;1.60;;;;;;;22.72;66.59;97608.88;5000000;28;20210;-28
2023/10/15 03:48:21;;;;;;;1.70;1.60;;;;;;;22.73;66.67;97609.72;4990413;28;20714;-26
2023/10/15 03:50:54;;;;;;;1.80;1.70;;;;;;;22.74;66.51;97607.19;4992835;28;20235;-26
2023/10/15 03:53:28;;;;;;;1.80;1.53;;;;;;;22.75;66.63;97618.34;4993648;28;20211;-26
2023/10/15 03:55:58;;;;;;;1.70;1.60;;;;;;;22.75;66.54;97623.44;4990108;28;20211;-26
2023/10/15 03:58:25;;;;;;;1.90;1.77;;;;;;;22.73;66.55;97623.41;4995224;28;20219;-27
2023/10/15 04:03:49;;;;;;;2.03;1.70;;;;;;;22.74;66.50;97631.97;4986651;28;20736;-26
2023/10/15 04:06:16;;;;;;;2.30;1.50;;;;;;;22.74;66.58;97631.97;4985817;28;20211;-26
2023/10/15 04:11:42;;;;;;;1.50;1.23;;;;;;;22.73;66.61;97602.91;5002201;28;20234;-26
2023/10/15 04:14:32;;;;;;;2.07;1.60;;;;;;;22.74;66.57;97619.16;4987136;28;20207;-27
2023/10/15 04:16:59;;;;;;;1.70;1.60;;;;;;;22.72;66.54;97608.88;4996909;28;20225;-26
2023/10/15 04:19:27;;;;;;;1.77;1.57;;;;;;;22.73;66.58;97613.16;4992222;28;20210;-27
2023/10/15 04:22:02;;;;;;;2.60;1.67;;;;;;;22.74;66.59;97624.28;4993589;28;20226;-26
2023/10/15 04:24:39;;;;;;;1.57;1.47;;;;;;;22.73;66.62;97630.22;4981513;28;20233;-27
2023/10/15 04:27:15;;;;;;;1.40;1.30;;;;;;;22.73;66.61;97631.09;4995614;28;20194;-27
2023/10/15 04:29:55;;;;;;;1.70;1.60;;;;;;;22.73;66.60;97622.53;5003082;28;20242;-26
2023/10/15 04:35:01;;;;;;;2.13;1.53;;;;;;;22.73;66.41;97614.84;4992064;28;20211;-26
2023/10/15 04:37:29;;;;;;;3.27;1.60;;;;;;;22.73;66.54;97609.72;4984223;28;20219;-26
2023/10/15 04:39:58;;;;;;;1.70;1.47;;;;;;;22.74;66.54;97596.09;4986888;28;20322;-31
2023/10/15 04:42:48;;;;;;;1.57;1.47;;;;;;;22.73;66.53;97605.47;4988470;28;20211;-26
2023/10/15 04:45:35;;;;;;;1.60;1.50;;;;;;;22.73;66.57;97602.91;4994674;28;20199;-32
2023/10/15 04:48:03;;;;;;;1.80;1.70;;;;;;;22.73;66.43;97614.84;4993150;28;20202;-26
2023/10/15 04:50:35;;;;;;;1.97;1.40;;;;;;;22.72;66.51;97608.88;4984162;28;20231;-26
2023/10/15 04:53:23;;;;;;;1.83;1.67;;;;;;;22.72;66.62;97614.00;4990361;28;20207;-26
2023/10/15 04:55:54;;;;;;;1.30;1.20;;;;;;;22.68;66.74;97607.03;4987086;28;20290;-29
2023/10/15 04:58:21;;;;;;;1.97;1.60;;;;;;;22.72;66.70;97605.44;4987567;28;20633;-26
2023/10/15 05:00:48;;;;;;;2.20;1.60;;;;;;;22.72;66.70;97602.88;4987369;28;20714;-26
2023/10/15 05:03:15;;;;;;;1.30;1.20;;;;;;;22.71;66.62;97612.25;4991079;28;20592;-26
2023/10/15 05:05:42;;;;;;;1.57;1.30;;;;;;;22.71;66.63;97619.94;4986910;28;20214;-26
2023/10/15 05:08:12;;;;;;;1.40;1.30;;;;;;;22.72;66.70;97625.94;4992483;28;20203;-28
2023/10/15 05:10:50;;;;;;;2.47;1.37;;;;;;;22.71;66.74;97619.09;4984188;28;20254;-28
2023/10/15 05:13:18;;;;;;;1.97;1.60;;;;;;;22.73;66.62;97625.97;4987484;28;20198;-26
2023/10/15 05:15:45;;;;;;;1.90;1.70;;;;;;;22.73;66.51;97619.97;4994211;28;20203;-26
2023/10/15 05:18:12;;;;;;;1.53;1.40;;;;;;;22.73;66.60;97615.72;4985116;28;20226;-28
2023/10/15 05:20:38;;;;;;;1.43;1.30;;;;;;;22.73;66.54;97623.41;4974559;28;20291;-39
2023/10/15 05:23:05;;;;;;;1.63;1.40;;;;;;;22.73;66.51;97620.84;4973160;28;20222;-31
2023/10/15 05:25:32;;;;;;;1.60;1.50;;;;;;;22.73;66.54;97625.97;4977039;28;20218;-27
2023/10/15 05:28:02;;;;;;;1.50;1.40;;;;;;;22.73;66.44;97625.09;4976693;28;20203;-39
2023/10/15 05:30:28;;;;;;;1.40;1.30;;;;;;;22.74;66.51;97626.84;4976387;28;20230;-27
2023/10/15 05:32:55;;;;;;;4.10;1.63;;;;;;;22.74;66.49;97620.00;4978767;28;20211;-30
2023/10/15 05:35:23;;;;;;;2.33;1.63;;;;;;;22.74;66.52;97621.72;4976094;28;20210;-31
2023/10/15 05:37:50;;;;;;;2.07;1.70;;;;;;;22.74;66.45;97616.59;4975422;28;20462;-30
2023/10/15 05:40:17;;;;;;;1.93;1.57;;;;;;;22.75;66.45;97626.00;4974550;28;20291;-26
2023/10/15 05:42:43;;;;;;;3.10;1.60;;;;;;;22.75;66.48;97628.56;4975044;28;20296;-35
2023/10/15 05:45:10;;;;;;;2.70;1.67;;;;;;;22.75;66.44;97623.44;4975000;28;20211;-26
2023/10/15 05:47:36;;;;;;;4.63;1.80;;;;;;;22.75;66.58;97626.00;4977879;28;20195;-30
2023/10/15 05:50:04;;;;;;;2.03;1.70;;;;;;;22.75;66.54;97626.91;4976614;28;20219;-29
2023/10/15 05:52:31;;;;;;;1.50;1.40;;;;;;;22.77;66.49;97632.06;4975218;28;20221;-36
2023/10/15 05:55:00;;;;;;;3.80;1.90;;;;;;;22.77;66.26;97643.16;4977775;28;20214;-27
2023/10/15 05:57:28;;;;;;;4.57;1.80;;;;;;;22.77;66.16;97639.75;4982420;28;20222;-26
2023/10/15 05:59:54;;;;;;;2.83;1.67;;;;;;;22.78;66.09;97641.47;4980886;28;20702;-26
2023/10/15 06:02:21;;;;;;;4.40;1.70;;;;;;;22.79;65.78;97648.31;4996253;28;20628;-27
2023/10/15 06:04:48;;;;;;;3.17;2.03;;;;;;;22.78;64.49;97647.47;4987949;28;20196;-30
2023/10/15 06:07:15;;;;;;;4.00;1.93;;;;;;;22.77;61.74;97650.00;4987436;28;20199;-26
2023/10/15 06:09:44;;;;;;;4.63;2.03;;;;;;;22.77;59.48;97665.38;4985450;28;20230;-26
2023/10/15 06:12:13;;;;;;;4.53;2.33;;;;;;;22.76;59.32;97661.06;4984844;28;20343;-26
2023/10/15 06:14:39;;;;;;;3.10;1.97;;;;;;;22.75;58.18;97656.75;4974875;28;20209;-28
2023/10/15 06:17:06;;;;;;;5.90;2.47;;;;;;;22.74;56.61;97663.56;4985571;28;20195;-26
2023/10/15 06:19:34;;;;;;;6.27;2.57;;;;;;;22.73;55.66;97669.53;4982157;28;20210;-26
2023/10/15 06:22:01;;;;;;;10.70;2.57;;;;;;;22.71;54.99;97660.94;4988421;28;20270;-26
2023/10/15 06:24:27;;;;;;;3.57;2.30;;;;;;;22.72;54.09;97661.81;4980157;28;20732;-26
2023/10/15 06:26:54;;;;;;;4.97;2.87;;;;;;;22.71;53.57;97667.78;4980932;28;20207;-29
2023/10/15 06:29:21;;;;;;;5.40;3.00;;;;;;;22.69;51.88;97661.72;4985850;28;20203;-27
2023/10/15 06:31:47;;;;;;;7.57;2.50;;;;;;;22.66;50.44;97654.84;4983596;28;20223;-26
2023/10/15 06:34:15;;;;;;;6.43;2.77;;;;;;;22.64;49.96;97658.16;4984918;28;20269;-29
2023/10/15 06:36:42;;;;;;;7.10;3.17;;;;;;;22.64;51.01;97658.16;4982829;28;20254;-33
2023/10/15 06:39:09;;;;;;;6.67;2.70;;;;;;;22.63;52.26;97664.13;4990755;28;20249;-30
2023/10/15 06:41:36;;;;;;;3.77;2.47;;;;;;;22.65;53.39;97672.72;4986976;28;20219;-26
2023/10/15 06:44:03;;;;;;;3.00;2.67;;;;;;;22.64;54.07;97668.41;4984260;28;20625;-26
2023/10/15 06:46:31;;;;;;;5.77;2.40;;;;;;;22.64;54.36;97655.59;4977682;28;20213;-26
2023/10/15 06:48:58;;;;;;;4.90;2.67;;;;;;;22.63;55.17;97657.31;4980002;28;20282;-26
2023/10/15 06:51:26;;;;;;;5.60;2.50;;;;;;;22.63;55.46;97662.44;4977474;28;20223;-32
2023/10/15 06:53:52;;;;;;;3.67;2.40;;;;;;;22.62;55.89;97665.81;4978373;28;20200;-26
2023/10/15 06:56:19;;;;;;;5.53;2.60;;;;;;;22.63;56.19;97671.81;4988564;28;20250;-31
2023/10/15 06:58:46;;;;;;;8.07;2.57;;;;;;;22.62;56.27;97675.22;4978616;28;20250;-26
2023/10/15 07:01:13;;;;;;;6.37;2.73;;;;;;;22.60;56.56;97687.97;4993285;28;20291;-26
2023/10/15 07:03:40;;;;;;;4.60;2.50;;;;;;;22.62;57.01;97693.13;4977787;28;20200;-28
2023/10/15 07:06:06;;;;;;;4.87;2.60;;;;;;;22.61;57.38;97699.94;4984793;28;20675;-27
2023/10/15 07:08:33;;;;;;;3.53;2.30;;;;;;;22.57;58.10;97681.88;4978518;28;20740;-26
2023/10/15 07:10:59;;;;;;;3.93;2.30;;;;;;;22.62;58.24;97693.97;4987919;28;20322;-26
2023/10/15 07:13:26;;;;;;;5.47;2.50;;;;;;;22.62;58.51;97688.00;4982766;28;20213;-30
2023/10/15 07:15:54;;;;;;;4.80;2.63;;;;;;;22.62;58.84;97693.97;4983699;28;20203;-26
2023/10/15 07:18:21;;;;;;;4.93;2.30;;;;;;;22.63;59.22;97695.75;4972712;28;20444;-28
2023/10/15 07:20:47;;;;;;;3.93;2.50;;;;;;;22.63;59.25;97705.09;4980300;28;20233;-26
2023/10/15 07:23:14;;;;;;;4.57;2.40;;;;;;;22.62;59.55;97698.25;4983837;28;20620;-26
2023/10/15 07:25:42;;;;;;;4.73;2.47;;;;;;;22.64;59.64;97706.84;4979244;28;20211;-28
2023/10/15 07:28:10;;;;;;;2.33;2.00;;;;;;;22.63;59.80;97708.56;4974670;28;20286;-27
2023/10/15 07:30:36;;;;;;;5.20;2.50;;;;;;;22.64;59.92;97706.84;4980973;28;20230;-29
2023/10/15 07:33:03;;;;;;;3.67;2.30;;;;;;;22.64;59.98;97710.28;4990913;28;20195;-26
2023/10/15 07:35:30;;;;;;;3.47;2.43;;;;;;;22.64;59.98;97707.72;4976107;28;20207;-26
2023/10/15 07:37:57;;;;;;;7.87;2.57;;;;;;;22.64;59.98;97696.59;4980388;28;20310;-30
2023/10/15 07:40:27;;;;;;;5.03;2.40;;;;;;;22.62;60.28;97693.97;4971965;28;20215;-26
2023/10/15 07:42:58;;;;;;;6.77;2.40;;;;;;;22.65;60.50;97695.78;4985013;28;20670;-27
2023/10/15 07:45:35;;;;;;;5.33;2.33;;;;;;;22.65;60.92;97706.03;4986636;28;20194;-32
2023/10/15 07:48:03;;;;;;;3.00;2.10;;;;;;;22.67;61.52;97704.34;4970801;28;20728;-31
2023/10/15 07:50:31;;;;;;;5.17;2.30;;;;;;;22.70;61.64;97707.00;4983159;28;20788;-26
2023/10/15 07:52:58;;;;;;;6.20;2.37;;;;;;;22.70;61.70;97710.44;4984979;28;20652;-27
2023/10/15 07:55:25;;;;;;;7.83;3.07;;;;;;;22.71;61.93;97708.75;4983403;28;20203;-26
2023/10/15 07:57:52;;;;;;;12.23;3.13;;;;;;;22.72;62.11;97718.19;4975543;28;20301;-33
2023/10/15 08:00:23;;;;;;;11.60;3.07;;;;;;;22.73;62.26;97722.47;4980359;28;20219;-28
2023/10/15 08:02:52;;;;;;;11.80;2.77;;;;;;;22.73;62.58;97719.91;4975589;28;20229;-26
2023/10/15 08:05:21;;;;;;;17.67;3.20;;;;;;;22.74;62.70;97727.63;4982864;28;20227;-26
2023/10/15 08:07:50;;;;;;;14.37;3.17;;;;;;;22.75;62.63;97731.06;4981814;28;20226;-26
2023/10/15 08:10:24;;;;;;;19.27;3.60;;;;;;;22.75;63.03;97734.50;4977875;28;20227;-29
2023/10/15 08:12:51;;;;;;;11.50;3.30;;;;;;;22.74;62.80;97737.88;4977045;28;20262;-26
2023/10/15 08:15:18;;;;;;;16.10;3.27;;;;;;;22.75;62.82;97736.19;4988943;28;20202;-26
2023/10/15 08:17:46;;;;;;;12.33;3.10;;;;;;;22.75;63.06;97736.19;4975737;28;20211;-28
2023/10/15 08:20:13;;;;;;;11.97;3.23;;;;;;;22.73;63.06;97736.16;4978198;28;20729;-26
2023/10/15 08:22:40;;;;;;;18.37;3.57;;;;;;;22.74;63.48;97734.47;4983921;28;20203;-26
2023/10/15 08:25:14;;;;;;;11.93;2.97;;;;;;;22.74;63.14;97735.31;4972982;28;20250;-30
2023/10/15 08:27:44;;;;;;;12.47;3.37;;;;;;;22.73;63.21;97727.59;4978890;28;20681;-29
2023/10/15 08:30:12;;;;;;;16.63;2.87;;;;;;;22.45;63.31;97687.50;4978867;28;20203;-39
2023/10/15 08:32:45;;;;;;;8.93;2.93;;;;;;;22.71;63.40;97734.38;4974004;28;20297;-26
2023/10/15 08:35:15;;;;;;;13.20;2.83;;;;;;;22.72;63.48;97741.22;4973150;28;20221;-27
2023/10/15 08:37:43;;;;;;;13.13;2.73;;;;;;;22.71;63.50;97735.22;4973390;28;20210;-31
2023/10/15 08:40:15;;;;;;;10.27;2.77;;;;;;;22.71;63.58;97740.34;4957614;28;20238;-26
2023/10/15 08:42:49;;;;;;;14.37;3.20;;;;;;;22.72;62.31;97743.78;4977229;28;20218;-27
2023/10/15 08:45:16;;;;;;;9.60;2.93;;;;;;;22.70;60.30;97748.88;4977048;28;20665;-28
2023/10/15 08:47:43;;;;;;;8.23;2.67;;;;;;;22.68;60.00;97731.75;4974835;28;20215;-30
2023/10/15 08:50:10;;;;;;;7.47;2.80;;;;;;;22.69;58.29;97726.66;4953468;28;20702;-34
2023/10/15 08:52:37;;;;;;;10.53;2.50;;;;;;;22.69;58.19;97723.22;4977053;28;20204;-29
2023/10/15 08:55:06;;;;;;;7.93;2.70;;;;;;;22.64;58.48;97720.53;4957820;28;20686;-37
2023/10/15 08:57:34;;;;;;;10.57;2.63;;;;;;;22.65;57.81;97718.84;4977891;28;20213;-30
2023/10/15 09:00:01;;;;;;;7.23;2.90;;;;;;;22.64;56.86;97715.41;4964397;28;20281;-33
2023/10/15 09:02:30;;;;;;;7.70;3.50;;;;;;;22.61;56.56;97712.75;4959875;28;20645;-29
2023/10/15 09:04:56;;;;;;;5.33;3.80;;;;;;;22.62;56.14;97711.91;4951445;28;20297;-36
2023/10/15 09:07:23;;;;;;;5.80;3.60;;;;;;;22.60;54.59;97703.34;4974403;28;20966;-27
2023/10/15 09:09:51;;;;;;;7.20;3.40;;;;;;;22.58;54.14;97704.09;4955734;28;20617;-26
2023/10/15 09:12:18;;;;;;;10.07;4.27;;;;;;;22.58;53.91;97707.53;4974045;28;20262;-27
2023/10/15 09:14:46;;;;;;;9.10;4.00;;;;;;;22.58;54.41;97711.78;4977501;28;20763;-36
2023/10/15 09:17:17;;;;;;;7.57;4.50;;;;;;;22.55;55.11;97701.47;4973210;28;20223;-32
2023/10/15 09:19:46;;;;;;;8.63;3.90;;;;;;;22.58;55.41;97714.34;4975643;28;20223;-30
2023/10/15 09:22:16;;;;;;;7.97;4.03;;;;;;;22.58;55.62;97704.09;4975787;28;20222;-35
2023/10/15 09:24:45;;;;;;;6.27;3.63;;;;;;;22.58;55.76;97707.53;4974219;28;20222;-26
2023/10/15 09:27:13;;;;;;;6.80;3.43;;;;;;;22.58;55.62;97698.97;4974694;28;20210;-29
2023/10/15 09:29:40;;;;;;;6.67;3.53;;;;;;;22.28;55.27;97642.63;4974927;28;20212;-35
2023/10/15 09:32:07;;;;;;;5.80;3.90;;;;;;;22.57;55.18;97692.13;4977954;28;20270;-30
2023/10/15 09:34:37;;;;;;;5.93;3.50;;;;;;;22.57;55.52;97695.56;4973791;28;20211;-29
2023/10/15 09:37:07;;;;;;;8.23;3.47;;;;;;;22.56;56.13;97696.38;4974112;28;20635;-30
2023/10/15 09:39:38;;;;;;;5.43;3.20;;;;;;;22.56;56.43;97698.94;4974172;28;20691;-29
2023/10/15 09:42:05;;;;;;;4.60;2.90;;;;;;;22.56;56.84;97696.38;4975304;28;20642;-29
2023/10/15 09:44:32;;;;;;;6.87;3.03;;;;;;;22.56;57.12;97704.06;4975952;28;20214;-34
2023/10/15 09:47:01;;;;;;;5.63;3.33;;;;;;;22.52;57.52;97697.13;4974591;28;20210;-26
2023/10/15 09:49:31;;;;;;;6.30;3.17;;;;;;;22.58;57.89;97711.78;4959249;28;20203;-30
2023/10/15 09:52:05;;;;;;;5.10;3.13;;;;;;;22.58;58.33;97714.34;4957550;28;20765;-26
2023/10/15 09:54:32;;;;;;;4.57;2.87;;;;;;;22.58;58.59;97722.91;4977235;28;20230;-27
2023/10/15 09:57:02;;;;;;;4.97;2.50;;;;;;;22.59;58.85;97724.63;4976882;28;20636;-34
2023/10/15 09:59:30;;;;;;;6.40;3.07;;;;;;;22.60;59.03;97723.84;4979210;28;20230;-31
2023/10/15 10:01:56;;;;;;;4.43;3.00;;;;;;;22.60;59.31;97723.84;4974483;28;20223;-30
2023/10/15 10:04:56;;;;;;;4.33;3.07;;;;;;;22.62;59.45;97732.41;4941476;28;22634;-31
2023/10/15 10:07:29;;;;;;;4.77;2.90;;;;;;;22.62;59.56;97737.53;4965836;28;20202;-28
2023/10/15 10:10:12;;;;;;;4.40;2.90;;;;;;;22.63;59.70;97733.28;4953638;28;20207;-26
2023/10/15 10:13:02;;;;;;;5.40;3.00;;;;;;;22.64;59.69;97735.00;4972049;28;20206;-31
2023/10/15 10:15:38;;;;;;;6.97;2.80;;;;;;;22.63;59.86;97728.16;4977637;28;20674;-27
2023/10/15 10:18:05;;;;;;;4.20;2.67;;;;;;;22.63;59.87;97726.47;4974106;28;20194;-31
2023/10/15 10:20:33;;;;;;;3.80;2.60;;;;;;;22.63;59.70;97725.59;4957175;28;20231;-26
2023/10/15 10:23:02;;;;;;;4.60;2.90;;;;;;;22.62;59.68;97723.88;4975475;28;20662;-33
2023/10/15 10:25:31;;;;;;;4.23;2.70;;;;;;;22.62;59.73;97726.44;4974909;28;20211;-26
2023/10/15 10:28:18;;;;;;;3.07;2.43;;;;;;;22.62;60.13;97718.75;4974156;28;20222;-35
2023/10/15 10:30:57;;;;;;;4.20;2.70;;;;;;;22.63;60.24;97717.91;4977441;28;20263;-26
2023/10/15 10:33:45;;;;;;;4.87;2.67;;;;;;;22.62;60.39;97706.78;4981302;28;20211;-27
2023/10/15 10:36:33;;;;;;;3.60;2.40;;;;;;;22.62;60.50;97705.94;4987747;28;20585;-29
2023/10/15 10:39:15;;;;;;;4.37;2.77;;;;;;;22.63;60.58;97702.56;4965225;28;20223;-26
2023/10/15 10:41:50;;;;;;;3.53;2.33;;;;;;;22.64;60.54;97707.72;4978819;28;20279;-26
2023/10/15 10:44:22;;;;;;;4.37;2.40;;;;;;;22.64;60.78;97706.84;4982663;28;20202;-28
2023/10/15 10:46:53;;;;;;;4.03;2.77;;;;;;;22.64;60.78;97700.03;4979296;28;20207;-29
2023/10/15 10:49:39;;;;;;;4.57;2.40;;;;;;;22.66;60.88;97690.69;4983621;28;20226;-28
2023/10/15 10:52:17;;;;;;;3.60;2.70;;;;;;;22.66;60.88;97677.00;4978113;28;20231;-26
2023/10/15 10:54:47;;;;;;;4.67;2.40;;;;;;;22.64;60.46;97671.84;4978866;28;20215;-26
2023/10/15 10:57:18;;;;;;;3.60;2.50;;;;;;;22.65;60.89;97683.81;4973709;28;20263;-29
2023/10/15 10:59:45;;;;;;;4.50;2.33;;;;;;;22.65;60.96;97688.09;4966819;28;20231;-26
2023/10/15 11:02:13;;;;;;;3.53;2.50;;;;;;;22.67;61.01;97676.19;4977055;28;20254;-27
2023/10/15 11:04:40;;;;;;;3.33;2.43;;;;;;;22.68;61.20;97672.81;4972429;28;20210;-26
2023/10/15 11:07:07;;;;;;;5.57;2.43;;;;;;;22.68;61.24;97667.69;4985623;28;20203;-26
2023/10/15 11:09:38;;;;;;;8.33;2.50;;;;;;;22.69;61.31;97669.41;4992338;28;20291;-27
2023/10/15 11:12:11;;;;;;;4.73;2.77;;;;;;;22.70;61.45;97664.31;4981936;28;20773;-25
2023/10/15 11:14:39;;;;;;;4.70;2.53;;;;;;;22.70;61.44;97666.00;4991430;28;20215;-25
2023/10/15 11:17:10;;;;;;;6.13;2.63;;;;;;;22.72;61.41;97664.38;4980083;28;20202;-26
2023/10/15 11:19:37;;;;;;;6.83;2.70;;;;;;;22.71;61.22;97654.97;4983195;28;20728;-25
2023/10/15 11:22:05;;;;;;;3.00;2.30;;;;;;;22.73;61.55;97653.28;4977388;28;20227;-27
2023/10/15 11:24:31;;;;;;;4.97;2.50;;;;;;;22.72;61.47;97651.56;4974937;28;20742;-25
2023/10/15 11:26:59;;;;;;;4.53;2.70;;;;;;;22.73;61.63;97648.16;4962278;28;20234;-25
2023/10/15 11:29:26;;;;;;;9.30;2.80;;;;;;;22.72;61.66;97646.44;4979388;28;20199;-26
2023/10/15 11:31:57;;;;;;;9.10;3.73;;;;;;;22.71;56.96;97647.28;4979731;28;20479;-25
2023/10/15 11:34:24;;;;;;;7.00;3.20;;;;;;;22.66;53.36;97651.41;4987443;28;20211;-26
2023/10/15 11:36:55;;;;;;;5.77;2.83;;;;;;;22.63;51.54;97647.06;4983969;28;20215;-23
2023/10/15 11:39:29;;;;;;;6.47;3.13;;;;;;;22.60;51.24;97640.97;4979293;28;20302;-24
2023/10/15 11:41:56;;;;;;;4.90;2.80;;;;;;;22.60;51.50;97648.66;4987828;28;20309;-25
2023/10/15 11:44:26;;;;;;;8.07;2.93;;;;;;;22.59;52.08;97657.19;4986456;28;20200;-25
2023/10/15 11:46:57;;;;;;;6.67;2.70;;;;;;;22.60;53.00;97659.78;4983943;28;20199;-25
2023/10/15 11:49:25;;;;;;;5.90;2.30;;;;;;;22.60;54.10;97671.72;4985082;28;20200;-25
2023/10/15 11:51:58;;;;;;;4.60;2.43;;;;;;;22.60;54.83;97657.22;4970387;28;20230;-25
2023/10/15 11:54:28;;;;;;;7.23;2.60;;;;;;;22.61;55.22;97655.50;4984219;28;20309;-25
2023/10/15 11:56:55;;;;;;;3.67;2.10;;;;;;;22.62;55.64;97654.72;4975375;28;20698;-26
2023/10/15 11:59:21;;;;;;;5.47;2.47;;;;;;;22.62;55.85;97659.84;4988427;28;20682;-26